Time;durP1;ratioP1;P1;durP2;ratioP2;P2;SDS_P1;SDS_P2;PMS_P1;PMS_P2;Temp;Humidity;BMP_temperature;BMP_pressure;BME280_temperature;BME280_humidity;BME280_pressure;Samples;Min_cycle;Max_cycle;Signal;HPM_P1;HPM_P2
2022/03/08 00:00:59;;;;;;;29.13;15.35;;;2.10;99.90;;;;;;5013158;28;20355;-60
2022/03/08 00:03:28;;;;;;;31.23;15.55;;;2.10;99.90;;;;;;5013608;28;20057;-59
2022/03/08 00:05:56;;;;;;;34.97;14.52;;;2.00;99.90;;;;;;5026351;28;20064;-64
2022/03/08 00:08:24;;;;;;;30.97;14.77;;;2.00;99.90;;;;;;5029181;28;20048;-60
2022/03/08 00:10:52;;;;;;;34.30;16.77;;;1.90;99.90;;;;;;5017041;28;20049;-60
2022/03/08 00:13:20;;;;;;;31.02;15.35;;;1.90;99.90;;;;;;5027706;28;20049;-59
2022/03/08 00:15:49;;;;;;;32.58;14.40;;;1.80;99.90;;;;;;5029033;28;20046;-61
2022/03/08 00:18:17;;;;;;;36.17;16.42;;;1.80;99.90;;;;;;5028730;28;20116;-60
2022/03/08 00:20:45;;;;;;;34.03;16.45;;;1.70;99.90;;;;;;5028599;28;20037;-60
2022/03/08 00:23:13;;;;;;;34.83;15.77;;;1.70;99.90;;;;;;5026961;28;20496;-60
2022/03/08 00:25:40;;;;;;;30.10;14.18;;;1.70;99.90;;;;;;5027418;28;20046;-60
2022/03/08 00:28:08;;;;;;;36.85;16.65;;;1.60;99.90;;;;;;5022054;28;20049;-60
2022/03/08 00:30:36;;;;;;;36.42;16.23;;;1.60;99.90;;;;;;5010942;28;20037;-60
2022/03/08 00:33:07;;;;;;;38.95;14.88;;;1.50;99.90;;;;;;5013447;28;20060;-60
2022/03/08 00:35:35;;;;;;;33.83;15.50;;;1.50;99.90;;;;;;5028935;28;20420;-59
2022/03/08 00:38:03;;;;;;;34.20;16.40;;;1.50;99.90;;;;;;5027723;28;20120;-60
2022/03/08 00:40:31;;;;;;;36.65;15.38;;;1.50;99.90;;;;;;5014408;28;20045;-59
2022/03/08 00:43:00;;;;;;;38.90;16.47;;;1.50;99.90;;;;;;5015272;28;20062;-60
2022/03/08 00:45:28;;;;;;;34.35;16.02;;;1.40;99.90;;;;;;5028130;28;20041;-60
2022/03/08 00:47:56;;;;;;;30.95;14.93;;;1.40;99.90;;;;;;5027223;28;20049;-59
2022/03/08 00:50:26;;;;;;;32.65;15.10;;;1.40;99.90;;;;;;5026965;28;20401;-59
2022/03/08 00:52:55;;;;;;;37.63;15.82;;;1.30;99.90;;;;;;5028241;28;20062;-62
2022/03/08 00:55:24;;;;;;;37.10;14.70;;;1.30;99.90;;;;;;5029027;28;20176;-62
2022/03/08 00:57:52;;;;;;;39.58;15.85;;;1.30;99.90;;;;;;5022966;28;20053;-61
2022/03/08 01:00:22;;;;;;;34.28;16.50;;;1.30;99.90;;;;;;5026516;28;20048;-61
2022/03/08 01:02:50;;;;;;;;;;;1.30;99.90;;;;;;5026273;28;20068;-59
2022/03/08 01:05:19;;;;;;;35.75;16.33;;;1.30;99.90;;;;;;5007503;28;19925;-60
2022/03/08 01:07:47;;;;;;;33.95;14.38;;;1.20;99.90;;;;;;5025908;28;20049;-59
2022/03/08 01:10:18;;;;;;;34.88;17.02;;;1.20;99.90;;;;;;5009819;28;20071;-60
2022/03/08 01:12:47;;;;;;;37.35;17.80;;;1.20;99.90;;;;;;5013997;28;20034;-59
2022/03/08 01:15:16;;;;;;;34.42;15.32;;;1.20;99.90;;;;;;5027409;28;20037;-59
2022/03/08 01:17:44;;;;;;;41.50;17.17;;;1.20;99.90;;;;;;5027926;28;20049;-59
2022/03/08 01:20:13;;;;;;;32.88;15.00;;;1.20;99.90;;;;;;5027634;28;20045;-60
2022/03/08 01:22:42;;;;;;;34.70;14.60;;;1.20;99.90;;;;;;5018268;28;20057;-63
2022/03/08 01:25:12;;;;;;;33.10;15.30;;;1.20;99.90;;;;;;5010710;28;20082;-59
2022/03/08 01:27:40;;;;;;;34.95;14.85;;;1.20;99.90;;;;;;5027152;28;20045;-60
2022/03/08 01:30:11;;;;;;;37.03;17.25;;;1.10;99.90;;;;;;5012701;28;20061;-60
2022/03/08 01:32:39;;;;;;;34.30;15.88;;;1.20;99.90;;;;;;5027910;28;20072;-60
2022/03/08 01:35:08;;;;;;;35.42;16.45;;;1.10;99.90;;;;;;5010364;28;20057;-60
2022/03/08 01:37:36;;;;;;;36.45;16.15;;;1.10;99.90;;;;;;5010860;28;20210;-61
2022/03/08 01:40:06;;;;;;;30.77;14.77;;;1.10;99.90;;;;;;5027997;28;20436;-60
2022/03/08 01:42:34;;;;;;;35.13;16.23;;;1.10;99.90;;;;;;5003816;28;20038;-60
2022/03/08 01:45:03;;;;;;;38.70;16.05;;;1.10;99.90;;;;;;5027625;28;20046;-60
2022/03/08 01:47:31;;;;;;;35.60;17.10;;;1.00;99.90;;;;;;5027542;28;20042;-59
2022/03/08 01:49:59;;;;;;;36.95;16.17;;;1.00;99.90;;;;;;5010124;28;20049;-59
2022/03/08 01:52:28;;;;;;;32.10;16.13;;;1.00;99.90;;;;;;5027846;28;20392;-60
2022/03/08 01:54:56;;;;;;;;;;;1.00;99.90;;;;;;5027824;28;20057;-59
2022/03/08 01:57:27;;;;;;;36.85;14.95;;;1.00;99.90;;;;;;5017856;28;19921;-60
2022/03/08 01:59:56;;;;;;;30.83;14.10;;;1.00;99.90;;;;;;5027681;28;20054;-60
2022/03/08 02:02:24;;;;;;;36.10;14.90;;;1.00;99.90;;;;;;5027398;28;20058;-60
2022/03/08 02:04:52;;;;;;;34.08;14.30;;;1.00;99.90;;;;;;5027129;28;20425;-59
2022/03/08 02:07:20;;;;;;;38.53;16.15;;;1.00;99.90;;;;;;5027881;28;20060;-60
2022/03/08 02:09:48;;;;;;;29.85;14.77;;;1.00;99.90;;;;;;5027115;28;20049;-61
2022/03/08 02:12:17;;;;;;;34.65;15.43;;;1.00;99.90;;;;;;5008032;28;20045;-61
2022/03/08 02:14:44;;;;;;;31.33;14.50;;;1.00;99.90;;;;;;5027213;28;20054;-61
2022/03/08 02:17:13;;;;;;;36.58;15.73;;;1.00;99.90;;;;;;5027625;28;20061;-61
2022/03/08 02:19:41;;;;;;;34.53;14.20;;;1.00;99.90;;;;;;5012427;28;20053;-61
2022/03/08 02:22:09;;;;;;;28.95;14.15;;;0.90;99.90;;;;;;5008391;28;20477;-60
2022/03/08 02:24:40;;;;;;;34.60;14.63;;;0.90;99.90;;;;;;5026664;28;20064;-60
2022/03/08 02:27:11;;;;;;;36.10;15.50;;;0.90;99.90;;;;;;5022515;28;20042;-60
2022/03/08 02:29:40;;;;;;;31.27;14.55;;;0.90;99.90;;;;;;5020399;28;20404;-60
2022/03/08 02:32:08;;;;;;;31.52;15.18;;;0.80;99.90;;;;;;5019740;28;20046;-62
2022/03/08 02:34:36;;;;;;;27.60;13.27;;;0.80;99.90;;;;;;5031404;28;20099;-60
2022/03/08 02:37:11;;;;;;;32.10;14.10;;;0.70;99.90;;;;;;5033473;28;20046;-60
2022/03/08 02:39:40;;;;;;;33.40;14.48;;;0.70;99.90;;;;;;5019509;28;20061;-61
2022/03/08 02:42:09;;;;;;;36.67;16.30;;;0.60;99.90;;;;;;5034413;28;20084;-59
2022/03/08 02:44:37;;;;;;;30.85;14.30;;;0.60;99.90;;;;;;5034137;28;20064;-60
2022/03/08 02:47:05;;;;;;;36.65;15.48;;;0.60;99.90;;;;;;5032516;28;20050;-60
2022/03/08 02:49:34;;;;;;;34.78;15.30;;;0.60;99.90;;;;;;5028141;28;20041;-60
2022/03/08 02:52:01;;;;;;;35.10;15.05;;;0.50;99.90;;;;;;5032505;28;20052;-59
2022/03/08 02:54:29;;;;;;;34.20;14.73;;;0.50;99.90;;;;;;5033338;28;20045;-59
2022/03/08 02:56:57;;;;;;;29.17;13.55;;;0.50;99.90;;;;;;5034344;28;20041;-60
2022/03/08 02:59:25;;;;;;;33.50;16.10;;;0.50;99.90;;;;;;5033237;28;20060;-60
2022/03/08 03:01:52;;;;;;;32.70;15.02;;;0.50;99.90;;;;;;5033973;28;20033;-61
2022/03/08 03:04:21;;;;;;;34.75;15.27;;;0.50;99.90;;;;;;5017444;28;20389;-60
2022/03/08 03:06:48;;;;;;;32.83;14.70;;;0.50;99.90;;;;;;4999685;28;20045;-60
2022/03/08 03:09:19;;;;;;;36.30;14.88;;;0.40;99.90;;;;;;5033277;28;20041;-61
2022/03/08 03:11:47;;;;;;;34.45;15.38;;;0.50;99.90;;;;;;5032704;28;20033;-61
2022/03/08 03:14:15;;;;;;;34.83;15.25;;;0.40;99.90;;;;;;5033361;28;20046;-62
2022/03/08 03:16:42;;;;;;;33.08;14.57;;;0.40;99.90;;;;;;5033535;28;20052;-59
2022/03/08 03:19:11;;;;;;;34.60;14.90;;;0.40;99.90;;;;;;5032669;28;20042;-61
2022/03/08 03:21:39;;;;;;;37.85;14.45;;;0.40;99.90;;;;;;5033415;28;20053;-62
2022/03/08 03:24:11;;;;;;;32.97;14.07;;;0.40;99.90;;;;;;5033571;28;20048;-61
2022/03/08 03:26:38;;;;;;;35.90;15.70;;;0.40;99.90;;;;;;5033461;28;20053;-60
2022/03/08 03:29:06;;;;;;;30.75;14.70;;;0.40;99.90;;;;;;5032076;28;20045;-60
2022/03/08 03:31:34;;;;;;;34.05;15.65;;;0.40;99.90;;;;;;5030931;28;20436;-61
2022/03/08 03:34:02;;;;;;;33.00;15.05;;;0.40;99.90;;;;;;5016569;28;20054;-61
2022/03/08 03:36:30;;;;;;;29.73;14.30;;;0.30;99.90;;;;;;5027159;28;20049;-60
2022/03/08 03:39:00;;;;;;;34.28;15.55;;;0.40;99.90;;;;;;5032431;28;20049;-60
2022/03/08 03:41:28;;;;;;;31.73;13.68;;;0.40;99.90;;;;;;5033009;28;20041;-61
2022/03/08 03:43:56;;;;;;;32.53;14.70;;;0.40;99.90;;;;;;5030836;28;20060;-60
2022/03/08 03:46:26;;;;;;;31.58;14.65;;;0.70;99.90;;;;;;5020694;28;20548;-59
2022/03/08 03:48:54;;;;;;;30.73;15.43;;;0.40;99.90;;;;;;5029902;28;20052;-60
2022/03/08 03:51:22;;;;;;;32.40;14.50;;;0.40;99.90;;;;;;5028160;28;20049;-60
2022/03/08 03:53:49;;;;;;;31.33;15.90;;;0.40;99.90;;;;;;5029536;28;20051;-60
2022/03/08 03:56:18;;;;;;;38.53;16.45;;;0.40;99.90;;;;;;5029943;28;20048;-60
2022/03/08 03:58:48;;;;;;;33.70;16.05;;;0.40;99.90;;;;;;5028768;28;20275;-61
2022/03/08 04:01:19;;;;;;;36.38;15.43;;;0.40;99.90;;;;;;5032723;28;20068;-60
2022/03/08 04:03:47;;;;;;;32.88;14.82;;;0.40;99.90;;;;;;5025741;28;20033;-60
2022/03/08 04:06:15;;;;;;;36.00;14.77;;;0.40;99.90;;;;;;5030723;28;20045;-59
2022/03/08 04:08:43;;;;;;;39.80;15.73;;;0.40;99.90;;;;;;5032187;28;20037;-61
2022/03/08 04:11:11;;;;;;;34.00;14.68;;;0.40;99.90;;;;;;5014879;28;20057;-60
2022/03/08 04:13:40;;;;;;;35.30;15.02;;;0.40;99.90;;;;;;5014324;28;20041;-59
2022/03/08 04:16:08;;;;;;;29.25;14.10;;;0.40;99.90;;;;;;5030907;28;20053;-59
2022/03/08 04:18:36;;;;;;;39.83;14.40;;;0.30;99.90;;;;;;5031910;28;20070;-60
2022/03/08 04:21:10;;;;;;;36.05;15.80;;;0.30;99.90;;;;;;5032450;28;20049;-60
2022/03/08 04:23:41;;;;;;;35.30;16.17;;;0.30;99.90;;;;;;5031663;28;20037;-60
2022/03/08 04:26:17;;;;;;;40.40;16.27;;;0.20;99.90;;;;;;5032056;28;20045;-59
2022/03/08 04:28:45;;;;;;;32.90;14.05;;;0.20;99.90;;;;;;5031292;28;20041;-60
2022/03/08 04:31:12;;;;;;;44.63;17.48;;;0.20;99.90;;;;;;5032535;28;20049;-60
2022/03/08 04:33:41;;;;;;;34.40;15.00;;;0.10;99.90;;;;;;5031636;28;20064;-59
2022/03/08 04:36:08;;;;;;;32.47;15.68;;;0.10;99.90;;;;;;5014458;28;20388;-59
2022/03/08 04:38:36;;;;;;;32.65;14.80;;;0.10;99.90;;;;;;5031652;28;20041;-61
2022/03/08 04:41:06;;;;;;;33.40;16.25;;;0.10;99.90;;;;;;5032307;28;20069;-60
2022/03/08 04:43:37;;;;;;;36.13;16.30;;;0.00;99.90;;;;;;5022421;28;20045;-60
2022/03/08 04:46:10;;;;;;;33.25;13.82;;;0.00;99.90;;;;;;5029959;28;20053;-61
2022/03/08 04:48:38;;;;;;;30.98;15.13;;;0.00;99.90;;;;;;5032534;28;20056;-60
2022/03/08 04:51:06;;;;;;;37.33;14.98;;;0.00;99.90;;;;;;5030847;28;20045;-60
2022/03/08 04:53:34;;;;;;;32.53;14.70;;;0.00;99.90;;;;;;5032708;28;20524;-61
2022/03/08 04:56:03;;;;;;;35.17;14.77;;;0.00;99.90;;;;;;5033369;28;20090;-60
2022/03/08 04:58:31;;;;;;;32.53;14.60;;;0.00;99.90;;;;;;5031882;28;20049;-60
2022/03/08 05:00:59;;;;;;;26.45;13.15;;;-0.10;99.90;;;;;;5031921;28;20422;-60
2022/03/08 05:03:27;;;;;;;29.02;12.90;;;-0.10;99.90;;;;;;5018765;28;20045;-59
2022/03/08 05:05:58;;;;;;;33.47;14.95;;;-0.10;99.90;;;;;;5031424;28;20409;-59
2022/03/08 05:08:26;;;;;;;33.72;14.73;;;-0.10;99.90;;;;;;5031359;28;20037;-59
2022/03/08 05:10:54;;;;;;;31.77;14.68;;;-0.10;99.90;;;;;;5030714;28;20037;-60
2022/03/08 05:13:22;;;;;;;32.88;14.75;;;-0.10;99.90;;;;;;5031207;28;20048;-59
2022/03/08 05:15:50;;;;;;;35.00;15.40;;;-0.10;99.90;;;;;;5031441;28;20064;-59
2022/03/08 05:18:21;;;;;;;34.28;14.63;;;-0.10;99.90;;;;;;5031199;28;20042;-59
2022/03/08 05:20:48;;;;;;;35.00;14.07;;;-0.10;99.90;;;;;;5031007;28;20045;-60
2022/03/08 05:23:16;;;;;;;34.92;15.00;;;-0.10;99.90;;;;;;5022066;28;20041;-59
2022/03/08 05:25:45;;;;;;;32.15;15.27;;;-0.10;99.90;;;;;;5013113;28;20402;-60
2022/03/08 05:28:13;;;;;;;40.53;16.20;;;0.00;99.90;;;;;;5029907;28;20052;-59
2022/03/08 05:30:41;;;;;;;35.03;14.60;;;-0.10;99.90;;;;;;5029533;28;20305;-60
2022/03/08 05:33:09;;;;;;;38.22;16.20;;;-0.20;99.90;;;;;;5027557;28;20037;-60
2022/03/08 05:35:37;;;;;;;33.42;14.70;;;-0.10;99.90;;;;;;5027661;28;20048;-59
2022/03/08 05:38:05;;;;;;;37.03;14.02;;;-0.20;99.90;;;;;;5013102;28;20057;-59
2022/03/08 05:40:33;;;;;;;40.03;14.55;;;-0.20;99.90;;;;;;5031198;28;20037;-59
2022/03/08 05:43:01;;;;;;;29.92;13.88;;;-0.20;99.90;;;;;;5030427;28;20048;-60
2022/03/08 05:45:35;;;;;;;38.45;15.48;;;-0.20;99.90;;;;;;5015542;28;20042;-59
2022/03/08 05:48:03;;;;;;;34.38;15.18;;;-0.20;99.90;;;;;;5008681;28;20060;-62
2022/03/08 05:50:31;;;;;;;28.38;13.25;;;-0.20;99.90;;;;;;5030921;28;20057;-60
2022/03/08 05:53:04;;;;;;;33.83;15.25;;;-0.20;99.90;;;;;;5023478;28;20046;-59
2022/03/08 05:55:32;;;;;;;39.30;15.02;;;-0.20;99.90;;;;;;5030697;28;20058;-60
2022/03/08 05:58:00;;;;;;;36.10;16.50;;;-0.30;99.90;;;;;;5029310;28;20045;-60
2022/03/08 06:00:28;;;;;;;34.22;15.02;;;-0.30;99.90;;;;;;5030557;28;20042;-60
2022/03/08 06:02:56;;;;;;;31.13;13.63;;;-0.30;99.90;;;;;;5000952;28;20408;-59
2022/03/08 06:05:25;;;;;;;31.80;14.68;;;-0.30;99.90;;;;;;5028013;28;20489;-60
2022/03/08 06:07:53;;;;;;;29.38;12.63;;;-0.30;99.90;;;;;;5027287;28;20052;-61
2022/03/08 06:10:21;;;;;;;34.33;14.63;;;-0.30;99.90;;;;;;5028004;28;20033;-59
2022/03/08 06:12:49;;;;;;;35.40;14.02;;;-0.30;99.90;;;;;;5027267;28;20064;-60
2022/03/08 06:15:17;;;;;;;26.95;12.88;;;-0.30;99.90;;;;;;5026685;28;20037;-58
2022/03/08 06:17:45;;;;;;;39.88;13.45;;;-0.30;99.90;;;;;;5030856;28;20425;-59
2022/03/08 06:20:14;;;;;;;30.10;14.75;;;-0.30;99.90;;;;;;5031251;28;20068;-61
2022/03/08 06:22:41;;;;;;;32.47;14.25;;;-0.30;99.90;;;;;;5030647;28;20504;-60
2022/03/08 06:25:10;;;;;;;31.45;15.43;;;-0.30;99.90;;;;;;5020633;28;20046;-60
2022/03/08 06:27:37;;;;;;;28.98;14.45;;;-0.30;99.90;;;;;;5027238;28;20053;-60
2022/03/08 06:30:06;;;;;;;34.67;14.32;;;-0.30;99.90;;;;;;5009843;28;20473;-60
2022/03/08 06:32:36;;;;;;;41.28;16.13;;;-0.30;99.90;;;;;;5030061;28;20116;-59
2022/03/08 06:35:05;;;;;;;29.58;13.25;;;-0.30;99.90;;;;;;5031154;28;20037;-60
2022/03/08 06:37:33;;;;;;;36.47;15.00;;;-0.30;99.90;;;;;;5012540;28;20041;-60
2022/03/08 06:40:01;;;;;;;35.88;14.77;;;-0.30;99.90;;;;;;5030316;28;20061;-60
2022/03/08 06:42:29;;;;;;;28.25;13.32;;;-0.30;99.90;;;;;;5027610;28;20041;-60
2022/03/08 06:44:57;;;;;;;29.52;13.45;;;-0.30;99.90;;;;;;5025613;28;20057;-59
2022/03/08 06:47:24;;;;;;;35.42;12.93;;;-0.30;99.90;;;;;;5019455;28;20053;-59
2022/03/08 06:49:52;;;;;;;30.38;12.93;;;-0.30;99.90;;;;;;5027137;28;20512;-60
2022/03/08 06:52:23;;;;;;;28.90;13.45;;;-0.30;99.90;;;;;;5026480;28;20414;-60
2022/03/08 06:54:51;;;;;;;37.75;14.25;;;-0.30;99.90;;;;;;5027247;28;20550;-59
2022/03/08 06:57:18;;;;;;;36.63;16.42;;;-0.20;99.90;;;;;;5029230;28;20081;-60
2022/03/08 06:59:46;;;;;;;29.38;13.77;;;-0.20;99.90;;;;;;5028591;28;20413;-60
2022/03/08 07:02:14;;;;;;;31.38;14.65;;;-0.20;99.90;;;;;;5025184;28;20542;-59
2022/03/08 07:04:45;;;;;;;33.20;14.77;;;-0.20;99.90;;;;;;5025307;28;20038;-59
2022/03/08 07:07:13;;;;;;;36.72;14.27;;;-0.20;99.90;;;;;;5029145;28;20053;-60
2022/03/08 07:09:41;;;;;;;30.00;14.55;;;-0.20;99.90;;;;;;5029663;28;20041;-60
2022/03/08 07:12:09;;;;;;;30.95;13.50;;;-0.20;99.90;;;;;;5030391;28;20508;-61
2022/03/08 07:14:37;;;;;;;35.45;15.15;;;-0.10;99.90;;;;;;5029299;28;20042;-60
2022/03/08 07:17:05;;;;;;;30.48;14.30;;;-0.10;99.90;;;;;;5030136;28;20045;-60
2022/03/08 07:19:35;;;;;;;29.73;13.20;;;-0.10;99.90;;;;;;5029772;28;20045;-61
2022/03/08 07:22:03;;;;;;;32.00;13.85;;;-0.10;99.90;;;;;;5022593;28;20049;-61
2022/03/08 07:24:31;;;;;;;30.50;13.00;;;0.00;99.90;;;;;;5011832;28;20046;-60
2022/03/08 07:27:00;;;;;;;34.58;15.23;;;0.00;99.90;;;;;;5032099;28;20049;-61
2022/03/08 07:29:28;;;;;;;34.33;15.43;;;0.10;99.90;;;;;;5029800;28;20057;-60
2022/03/08 07:31:59;;;;;;;33.45;14.48;;;0.10;99.90;;;;;;5016025;28;20607;-60
2022/03/08 07:34:27;;;;;;;31.55;13.95;;;0.10;99.90;;;;;;5027871;28;20458;-61
2022/03/08 07:36:55;;;;;;;33.67;14.50;;;0.10;99.90;;;;;;5029281;28;20045;-59
2022/03/08 07:39:23;;;;;;;29.25;13.25;;;0.10;99.90;;;;;;5029660;28;20690;-60
2022/03/08 07:41:51;;;;;;;34.75;13.90;;;0.20;99.90;;;;;;5028988;28;20056;-60
2022/03/08 07:44:23;;;;;;;37.72;14.98;;;0.20;99.90;;;;;;5013279;28;20041;-60
2022/03/08 07:46:52;;;;;;;39.88;14.80;;;0.20;99.90;;;;;;5024044;28;20049;-60
2022/03/08 07:49:20;;;;;;;27.08;13.43;;;0.30;99.90;;;;;;4997192;28;20050;-59
2022/03/08 07:51:53;;;;;;;27.60;13.50;;;0.30;99.90;;;;;;5029126;28;20174;-59
2022/03/08 07:54:21;;;;;;;29.60;15.48;;;0.40;99.90;;;;;;5027125;28;20580;-59
2022/03/08 07:56:49;;;;;;;34.30;14.43;;;0.50;99.90;;;;;;5011726;28;20057;-61
2022/03/08 07:59:17;;;;;;;31.80;15.35;;;0.50;99.90;;;;;;5022473;28;20045;-60
2022/03/08 08:01:45;;;;;;;32.63;15.60;;;0.50;99.90;;;;;;5026389;28;20064;-60
2022/03/08 08:04:16;;;;;;;30.35;13.27;;;0.60;99.90;;;;;;5022084;28;20085;-60
2022/03/08 08:06:44;;;;;;;31.30;13.32;;;0.70;99.90;;;;;;5001373;28;20057;-60
2022/03/08 08:09:12;;;;;;;31.23;13.57;;;0.70;99.90;;;;;;5019686;28;20053;-61
2022/03/08 08:11:40;;;;;;;32.88;14.30;;;0.70;99.90;;;;;;5009244;28;20382;-60
2022/03/08 08:14:09;;;;;;;31.85;14.32;;;0.80;99.90;;;;;;5020770;28;20148;-59
2022/03/08 08:16:37;;;;;;;26.70;13.20;;;0.90;99.90;;;;;;5024963;28;20050;-60
2022/03/08 08:19:04;;;;;;;29.02;13.45;;;1.00;99.90;;;;;;5014978;28;20048;-61
2022/03/08 08:21:32;;;;;;;31.30;13.23;;;1.10;99.90;;;;;;5026791;28;20045;-61
2022/03/08 08:24:01;;;;;;;30.50;14.88;;;1.10;99.90;;;;;;5027204;28;20505;-60
2022/03/08 08:26:29;;;;;;;34.20;13.40;;;1.20;99.90;;;;;;5013898;28;20548;-60
2022/03/08 08:28:57;;;;;;;29.73;13.73;;;1.20;99.90;;;;;;5026742;28;20052;-60
2022/03/08 08:31:28;;;;;;;35.83;15.50;;;1.30;99.90;;;;;;5026040;28;20052;-60
2022/03/08 08:33:56;;;;;;;30.85;14.07;;;1.40;99.90;;;;;;5025281;28;20049;-60
2022/03/08 08:36:24;;;;;;;33.65;15.77;;;1.40;99.90;;;;;;5018727;28;20045;-59
2022/03/08 08:38:52;;;;;;;30.58;13.27;;;1.50;99.90;;;;;;5010908;28;20042;-59
2022/03/08 08:41:20;;;;;;;39.90;15.32;;;1.60;99.90;;;;;;5019703;28;20049;-59
2022/03/08 08:43:48;;;;;;;29.50;14.25;;;1.70;99.90;;;;;;5026376;28;20052;-60
2022/03/08 08:46:16;;;;;;;33.15;14.93;;;1.70;99.90;;;;;;5026723;28;20208;-61
2022/03/08 08:48:44;;;;;;;27.15;13.93;;;1.80;99.90;;;;;;5025891;28;20041;-60
2022/03/08 08:51:15;;;;;;;33.40;13.80;;;1.80;99.90;;;;;;5025667;28;20045;-60
2022/03/08 08:53:43;;;;;;;32.42;14.40;;;1.90;99.90;;;;;;5027409;28;20413;-61
2022/03/08 08:56:10;;;;;;;34.95;15.23;;;2.00;99.90;;;;;;5027942;28;20045;-62
2022/03/08 08:58:38;;;;;;;31.42;14.23;;;2.00;99.90;;;;;;5029044;28;20488;-59
2022/03/08 09:01:06;;;;;;;32.92;13.65;;;2.10;99.90;;;;;;5029102;28;20046;-61
2022/03/08 09:03:36;;;;;;;29.73;11.85;;;2.20;99.90;;;;;;5011189;28;20052;-60
2022/03/08 09:06:04;;;;;;;28.58;13.23;;;2.20;99.90;;;;;;5009075;28;20495;-60
2022/03/08 09:08:38;;;;;;;30.10;12.98;;;2.30;99.90;;;;;;5007013;28;20065;-62
2022/03/08 09:11:08;;;;;;;29.17;14.52;;;2.40;99.90;;;;;;5025653;28;20041;-61
2022/03/08 09:13:36;;;;;;;24.00;12.70;;;2.50;99.90;;;;;;5028579;28;20532;-61
2022/03/08 09:16:05;;;;;;;29.38;12.95;;;2.60;99.90;;;;;;5027499;28;20033;-61
2022/03/08 09:18:36;;;;;;;29.73;13.27;;;2.70;99.90;;;;;;5027673;28;20056;-60
2022/03/08 09:21:07;;;;;;;29.02;13.68;;;2.70;99.90;;;;;;5026734;28;20057;-61
2022/03/08 09:23:40;;;;;;;29.15;14.38;;;2.80;99.90;;;;;;5026584;28;20045;-60
2022/03/08 09:26:08;;;;;;;29.55;13.23;;;2.90;99.90;;;;;;5027654;28;20428;-60
2022/03/08 09:28:42;;;;;;;33.97;15.18;;;2.90;99.90;;;;;;5012920;28;20046;-63
2022/03/08 09:31:10;;;;;;;27.27;14.35;;;3.00;99.90;;;;;;5008548;28;20482;-60
2022/03/08 09:33:42;;;;;;;30.85;15.10;;;3.10;99.90;;;;;;4991217;28;20054;-61
2022/03/08 09:36:11;;;;;;;27.40;13.55;;;3.20;99.90;;;;;;5003481;28;20046;-61
2022/03/08 09:38:39;;;;;;;32.63;14.32;;;3.30;99.90;;;;;;4988819;28;20050;-60
2022/03/08 09:41:07;;;;;;;36.28;14.82;;;3.40;99.90;;;;;;4989668;28;20058;-60
2022/03/08 09:43:37;;;;;;;27.30;13.77;;;3.40;99.90;;;;;;5007789;28;20050;-60
2022/03/08 09:46:05;;;;;;;;;;;3.50;99.90;;;;;;5007313;28;20062;-60
2022/03/08 09:48:37;;;;;;;34.50;14.15;;;3.60;99.90;;;;;;5008577;28;19921;-59
2022/03/08 09:51:10;;;;;;;32.65;14.40;;;3.60;99.90;;;;;;5003365;28;20047;-60
2022/03/08 09:53:40;;;;;;;26.70;13.40;;;3.70;99.90;;;;;;4999951;28;20398;-62
2022/03/08 09:56:11;;;;;;;31.45;13.55;;;3.80;99.90;;;;;;5006660;28;20061;-61
2022/03/08 09:58:41;;;;;;;32.78;15.18;;;3.90;99.90;;;;;;5008281;28;20056;-62
2022/03/08 10:01:12;;;;;;;31.38;15.32;;;3.90;99.90;;;;;;5000145;28;20485;-60
2022/03/08 10:03:46;;;;;;;30.27;14.70;;;4.00;99.90;;;;;;5006333;28;20042;-59
2022/03/08 10:06:17;;;;;;;32.20;16.05;;;4.10;99.90;;;;;;4998418;28;20050;-60
2022/03/08 10:08:47;;;;;;;33.72;16.25;;;4.20;99.90;;;;;;4987378;28;20046;-60
2022/03/08 10:11:16;;;;;;;31.42;14.07;;;4.20;99.90;;;;;;4995814;28;20057;-60
2022/03/08 10:13:50;;;;;;;28.15;14.60;;;4.30;99.90;;;;;;5002468;28;20505;-61
2022/03/08 10:16:27;;;;;;;33.00;15.40;;;4.40;99.90;;;;;;5007460;28;20061;-60
2022/03/08 10:19:08;;;;;;;28.30;13.70;;;4.40;99.90;;;;;;5007133;28;20056;-61
2022/03/08 10:21:36;;;;;;;26.40;13.30;;;4.50;99.90;;;;;;4995814;28;20042;-61
2022/03/08 10:24:14;;;;;;;32.05;15.48;;;4.60;99.90;;;;;;5004232;28;20068;-61
2022/03/08 10:26:46;;;;;;;27.60;14.30;;;4.60;99.90;;;;;;5007364;28;20038;-61
2022/03/08 10:29:23;;;;;;;32.00;15.48;;;4.70;99.90;;;;;;5020356;28;20053;-62
2022/03/08 10:32:11;;;;;;;33.80;15.13;;;4.80;99.90;;;;;;5027983;28;20045;-60
2022/03/08 10:34:39;;;;;;;28.65;15.43;;;5.00;99.90;;;;;;5010093;28;20802;-60
2022/03/08 10:37:15;;;;;;;31.53;14.37;;;5.10;99.90;;;;;;5015469;28;20410;-60
2022/03/08 10:39:57;;;;;;;34.47;15.57;;;5.10;99.90;;;;;;5026773;28;20057;-59
2022/03/08 10:42:39;;;;;;;35.08;15.55;;;5.30;99.90;;;;;;5027256;28;20057;-59
2022/03/08 10:45:08;;;;;;;32.70;16.52;;;5.30;99.90;;;;;;5026645;28;20049;-60
2022/03/08 10:47:41;;;;;;;37.60;15.82;;;5.40;99.90;;;;;;5024324;28;20049;-60
2022/03/08 10:50:12;;;;;;;32.78;14.10;;;5.60;99.90;;;;;;5026480;28;20060;-61
2022/03/08 10:52:43;;;;;;;33.05;14.15;;;5.70;99.90;;;;;;5017423;28;20591;-60
2022/03/08 10:55:20;;;;;;;28.60;13.80;;;5.80;99.90;;;;;;5030424;28;20053;-61
2022/03/08 10:58:12;;;;;;;31.67;13.70;;;5.80;99.90;;;;;;5031108;28;20873;-60
2022/03/08 11:01:01;;;;;;;29.92;15.13;;;5.90;99.90;;;;;;5030506;28;20049;-59
2022/03/08 11:03:30;;;;;;;31.77;16.48;;;6.00;99.90;;;;;;5027329;28;20504;-60
2022/03/08 11:06:05;;;;;;;31.13;15.48;;;6.00;99.90;;;;;;5008846;28;20060;-60
2022/03/08 11:08:33;;;;;;;34.88;15.73;;;6.20;99.90;;;;;;5013747;28;20060;-59
2022/03/08 11:11:01;;;;;;;31.23;13.85;;;6.20;99.90;;;;;;5020706;28;20056;-61
2022/03/08 11:13:29;;;;;;;31.45;15.90;;;6.30;99.90;;;;;;5028886;28;20048;-60
2022/03/08 11:15:57;;;;;;;29.27;14.90;;;6.40;99.90;;;;;;5027575;28;20048;-60
2022/03/08 11:18:26;;;;;;;33.50;14.50;;;6.60;99.90;;;;;;5010720;28;20064;-60
2022/03/08 11:20:58;;;;;;;34.08;15.85;;;6.70;99.90;;;;;;5030086;28;20087;-60
2022/03/08 11:23:28;;;;;;;29.35;14.43;;;6.90;99.90;;;;;;5021748;28;20421;-58
2022/03/08 11:25:56;;;;;;;28.38;14.57;;;7.10;99.90;;;;;;5030582;28;20053;-59
2022/03/08 11:28:25;;;;;;;30.17;14.57;;;7.20;99.90;;;;;;5029802;28;20064;-60
2022/03/08 11:30:56;;;;;;;33.70;15.57;;;7.30;99.90;;;;;;5029868;28;20053;-59
2022/03/08 11:33:43;;;;;;;33.15;15.13;;;7.50;99.90;;;;;;5030219;28;20045;-59
2022/03/08 11:36:22;;;;;;;26.80;13.98;;;7.80;99.90;;;;;;5029644;28;20504;-59
2022/03/08 11:39:17;;;;;;;33.42;15.73;;;7.90;99.90;;;;;;5010635;28;20501;-59
2022/03/08 11:41:48;;;;;;;33.90;14.63;;;8.10;99.90;;;;;;5000078;28;20049;-59
2022/03/08 11:44:33;;;;;;;30.38;15.18;;;8.20;99.90;;;;;;5026423;28;20489;-60
2022/03/08 11:47:09;;;;;;;29.52;16.15;;;8.40;99.90;;;;;;5026214;28;20855;-58
2022/03/08 11:49:51;;;;;;;28.95;14.82;;;8.50;99.90;;;;;;5026741;28;20046;-59
2022/03/08 11:52:24;;;;;;;26.02;14.27;;;8.70;99.90;;;;;;5013170;28;20054;-59
2022/03/08 11:55:03;;;;;;;23.15;13.05;;;8.80;99.90;;;;;;5012381;28;20045;-58
2022/03/08 11:57:52;;;;;;;28.90;15.18;;;9.00;99.90;;;;;;5029942;28;20065;-60
2022/03/08 12:00:46;;;;;;;29.73;14.57;;;9.20;99.90;;;;;;5029313;28;20041;-59
2022/03/08 12:03:23;;;;;;;32.83;14.98;;;9.40;99.90;;;;;;5025336;28;20060;-60
2022/03/08 12:06:04;;;;;;;29.10;15.52;;;9.70;99.90;;;;;;5029290;28;20060;-60
2022/03/08 12:08:33;;;;;;;31.67;14.43;;;10.00;99.90;;;;;;5022138;28;20037;-59
2022/03/08 12:11:24;;;;;;;29.33;14.32;;;10.20;99.70;;;;;;5029691;28;20076;-59
2022/03/08 12:14:33;;;;;;;28.02;15.27;;;10.40;97.70;;;;;;5028609;28;20045;-59
2022/03/08 12:17:11;;;;;;;27.40;14.23;;;10.60;95.50;;;;;;5019559;28;20072;-60
2022/03/08 12:19:52;;;;;;;30.08;14.60;;;10.70;94.60;;;;;;5029684;28;20389;-59
2022/03/08 12:22:23;;;;;;;;;;;10.80;95.20;;;;;;5023828;28;20053;-59
2022/03/08 12:24:59;;;;;;;25.60;13.15;;;10.90;95.20;;;;;;5029314;28;19928;-59
2022/03/08 12:27:47;;;;;;;27.88;15.13;;;11.20;93.20;;;;;;5029226;28;20057;-59
2022/03/08 12:30:15;;;;;;;32.67;15.10;;;11.20;90.80;;;;;;5029452;28;20052;-61
2022/03/08 12:32:43;;;;;;;32.88;15.27;;;11.00;90.70;;;;;;5031567;28;20397;-59
2022/03/08 12:35:21;;;;;;;28.52;15.23;;;10.60;92.60;;;;;;5031047;28;20489;-59
2022/03/08 12:38:02;;;;;;;33.60;15.05;;;10.20;94.90;;;;;;5025464;28;20497;-59
2022/03/08 12:40:37;;;;;;;33.88;16.05;;;10.00;97.10;;;;;;5029132;28;20045;-59
2022/03/08 12:43:10;;;;;;;28.13;15.63;;;10.10;99.90;;;;;;5028777;28;20048;-59
2022/03/08 12:45:45;;;;;;;29.05;14.85;;;10.50;98.50;;;;;;5028241;28;20049;-59
2022/03/08 12:48:16;;;;;;;28.85;14.68;;;11.00;96.60;;;;;;5027961;28;20049;-59
2022/03/08 12:50:50;;;;;;;28.42;15.77;;;11.40;95.00;;;;;;5027968;28;20057;-59